Badajoz, Spain

9:12 AM CET on February 28, 2015 (GMT +0100)
Talavera La Real Air Base | Change Station
CLOSE
Current Station
Airport
Location: Badajoz,
Elevation: 630 ft
Nearby Weather Stations

Elev 630 ft 38.88 °N, 6.83 °W | Updated 1 hour ago

Clear
Clear
45 °F
Feels Like 40 °F
N
8
Wind Variable Wind from WSW

Today
High -- | Low -- °F
--% Chance of Precip.
Yesterday
High -- | Low -- °F
Precip. -- in
8:01 AM 7:18 PM
Waxing Gibbous, 75% visible
Pressure 30.30 in
Visibility -9999.0 miles
Clouds
Windchill 40 °F
Dew Point 41 °F
Humidity 87%
Rainfall 0.00 in
Snow Depth Not available.
UV Not available.
Pollen Not available.
Air Quality Not available.
Flu Activity Not available.
METAR LEBZ 280700Z 25007KT CAVOK 07/05 Q1026

More Conditions Fewer Conditions

Pressure 30.30 in
Visibility -9999.0 miles
Clouds
Windchill 40 °F
Dew Point 41 °F
Humidity 87%
Rainfall 0.00 in
Snow Depth Not available.
UV Not available.
Pollen Not available.
Air Quality Not available.
Flu Activity Not available.
METAR LEBZ 280700Z 25007KT CAVOK 07/05 Q1026

More Conditions Fewer Conditions

10-Day Weather Forecast

Almanac

Astronomy

Feb. 28, 2015 Rise Set
Actual Time
Civil Twilight
Nautical Twilight
Astronomical Twilight
Moon
Length of Visible Light
Length of Day
Tomorrow will be .
, % of the Moon is Illuminated

Today's Extremes

Country Highs Country Lows

Community

WunderPhotos

Upload Photos

1,800,984 photos uploaded!

WunderBlogs® & News

Nearby

Air Quality

  Air Quality AQ Index Pollutant
Not available.

Snow Depth

Station Depth Elevation

Earthquake Activity

City Distance Mag. Time & Date
Minimum magnitude displayed is 2.5.

Coastal Water Temperatures

Place Temperature

Nearby Weather Stations